Latest Weather Observations for Maitland Airport

IDN60801

Issued at 4:03 pm EST Monday 25 September 2017 (issued every 30 minutes, with the page automatically refreshed every 10 minutes)

About weather observations | Map of weather stations | Latest weather observations for NSW | Other Formats
Station Details ID: 061428 Name: MAITLAND AIRPORT AWS Lat: -32.70 Lon: 151.49 Height: 27.5 m
Data from the previous 72 hours. | See also: Recent months at Maitland Airport
Date/Time
EST
Temp
°C
App
Temp
°C
Dew
Point
°C
Rel
Hum
%
Delta-T
°C
Wind Press
QNH
hPa
Press
MSL
hPa
Rain since
9am
mm
Dir  Spd
km/h
Gust
km/h
Spd
kts
Gust
kts
25/04:00pm 26.7 19.1 -2.1 15 13.0 NW 28 44 15 24 1006.2 1006.1 0.0
25/03:31pm 27.2 18.9 -1.7 15 13.2 NW 32 50 17 27 1005.8 1005.7 0.0
25/03:30pm 27.2 18.7 -1.7 15 13.2 NW 33 50 18 27 1005.8 1005.7 0.0
25/03:01pm 27.1 18.7 -2.7 14 13.3 NW 32 52 17 28 1005.6 1005.5 0.0
25/03:00pm 27.0 19.1 -1.8 15 13.1 NW 30 46 16 25 1005.7 1005.6 0.0
25/02:40pm 27.3 19.8 -1.6 15 13.2 NW 28 46 15 25 1005.5 1005.4 0.0
25/02:30pm 27.5 19.6 -1.4 15 13.2 NW 30 43 16 23 1005.3 1005.2 0.0
25/02:11pm 27.8 20.3 -1.2 15 13.3 NW 28 46 15 25 1005.3 1005.2 0.0
25/02:00pm 28.1 19.6 -1.9 14 13.7 NW 33 50 18 27 1005.1 1005.0 0.0
25/01:32pm 28.6 20.3 -1.5 14 13.9 NW 32 50 17 27 1005.0 1004.9 0.0
25/01:30pm 28.6 20.3 -1.5 14 13.9 NW 32 46 17 25 1004.9 1004.8 0.0
25/01:14pm 29.4 20.6 -0.9 14 14.2 WNW 35 54 19 29 1005.1 1005.0 0.0
25/01:00pm 29.3 20.0 -1.9 13 14.4 WNW 37 52 20 28 1004.9 1004.8 0.0
25/12:33pm 30.1 22.1 0.6 15 14.3 WNW 32 50 17 27 1005.1 1005.0 0.0
25/12:30pm 29.7 21.4 -0.6 14 14.3 WNW 33 50 18 27 1005.1 1005.0 0.0
25/12:00pm 28.6 19.4 -1.5 14 13.9 NW 37 56 20 30 1005.3 1005.2 0.0
25/11:30am 28.2 19.9 -1.8 14 13.7 NW 32 50 17 27 1005.8 1005.7 0.0
25/11:01am 27.6 18.8 -1.3 15 13.3 NW 35 56 19 30 1006.1 1006.0 0.0
25/11:00am 28.1 19.7 -0.9 15 13.5 NW 33 50 18 27 1006.2 1006.1 0.0
25/10:30am 27.0 17.4 -1.8 15 13.0 WNW 39 57 21 31 1006.8 1006.7 0.0
25/10:00am 26.9 19.6 -0.2 17 12.6 NW 28 46 15 25 1007.2 1007.1 0.0
25/09:58am 27.1 19.9 0.8 18 12.5 NW 28 46 15 25 1007.4 1007.3 0.0
25/09:30am 26.3 19.9 0.9 19 12.0 NW 24 39 13 21 1007.9 1007.8 0.0
25/09:00am 24.8 19.3 4.0 26 10.3 NW 22 35 12 19 1008.5 1008.4 0.0
25/08:30am 23.9 20.7 6.7 33 8.9 WNW 13 20 7 11 1008.2 1008.1 0.0
25/08:00am 21.0 18.3 5.8 37 7.6 WNW 9 13 5 7 1008.1 1008.0 0.0
25/07:30am 20.3 18.0 7.3 43 6.6 WNW 9 13 5 7 1007.6 1007.5 0.0
25/07:00am 18.9 15.4 7.0 46 6.0 NW 15 19 8 10 1007.4 1007.3 0.0
25/06:48am 17.7 15.7 8.8 56 4.6 NW 9 15 5 8 1007.4 1007.3 0.0
25/06:30am 12.6 11.4 9.4 81 1.6 NW 6 9 3 5 1007.2 1007.1 0.0
25/06:00am 11.7 11.3 8.2 79 1.7 CALM 0 0 0 0 1006.9 1006.8 0.0
25/05:30am 11.9 11.3 7.2 73 2.3 CALM 0 0 0 0 1006.5 1006.4 0.0
25/05:00am 13.9 11.7 7.9 67 3.0 NW 9 11 5 6 1006.1 1006.0 0.0
25/04:30am 12.2 10.4 9.4 83 1.4 NW 9 11 5 6 1005.6 1005.5 0.0
25/04:00am 13.2 13.1 9.5 78 1.9 CALM 0 0 0 0 1005.3 1005.2 0.0
25/03:30am 14.8 13.5 9.2 69 2.9 NW 6 7 3 4 1005.1 1005.0 0.0
25/03:00am 14.6 15.3 12.1 85 1.4 CALM 0 0 0 0 1005.1 1005.0 0.0
25/02:30am 15.3 16.0 12.1 81 1.7 CALM 0 0 0 0 1005.0 1004.9 0.0
25/02:00am 16.2 16.1 12.2 77 2.2 NW 4 7 2 4 1004.2 1004.1 0.0
25/01:30am 16.0 16.8 12.4 79 2.0 CALM 0 0 0 0 1004.3 1004.2 0.0
25/01:00am 15.9 16.7 12.6 81 1.8 CALM 0 0 0 0 1005.0 1004.9 0.0
25/12:30am 15.9 16.8 13.0 83 1.6 CALM 0 0 0 0 1004.7 1004.6 0.0
25/12:00am 16.2 17.0 12.7 80 1.9 CALM 0 0 0 0 1004.9 1004.8 0.0
 
Date/Time
EST
Temp
°C
App
Temp
°C
Dew
Point
°C
Rel
Hum
%
Delta-T
°C
Wind Press
QNH
hPa
Press
MSL
hPa
Rain since
9am
mm
Dir  Spd
km/h
Gust
km/h
Spd
kts
Gust
kts
24/11:30pm 16.3 16.9 11.9 75 2.4 CALM 0 0 0 0 1004.8 1004.7 0.0
24/11:00pm 17.8 18.5 12.3 70 3.1 CALM 0 0 0 0 1004.9 1004.8 0.0
24/10:30pm 17.5 18.1 12.0 70 3.0 CALM 0 0 0 0 1005.1 1005.0 0.0
24/10:00pm 19.6 20.3 12.1 62 4.2 CALM 0 0 0 0 1004.8 1004.7 0.0
24/09:30pm 19.7 19.9 12.0 61 4.3 NW 2 7 1 4 1004.8 1004.7 0.0
24/09:00pm 20.3 20.3 12.3 60 4.5 NW 4 9 2 5 1004.8 1004.7 0.0
24/08:30pm 20.7 21.3 11.9 57 4.9 CALM 0 0 0 0 1004.6 1004.5 0.0
24/08:00pm 21.3 20.8 12.2 56 5.1 NW 6 9 3 5 1004.1 1004.0 0.0
24/07:30pm 21.7 22.1 11.4 52 5.7 CALM 0 0 0 0 1003.9 1003.8 0.0
24/07:00pm 22.9 22.0 10.7 46 6.8 NW 6 9 3 5 1003.5 1003.4 0.0
24/06:30pm 24.2 23.2 5.5 30 9.5 CALM 0 4 0 2 1002.9 1002.8 0.0
24/06:00pm 27.3 24.6 2.4 20 12.2 NW 6 9 3 5 1002.5 1002.4 0.0
24/05:30pm 28.4 25.0 1.8 18 13.0 NW 9 13 5 7 1002.2 1002.1 0.0
24/05:00pm 29.0 26.0 2.3 18 13.2 NW 7 11 4 6 1002.0 1001.9 0.0
24/04:30pm 30.1 25.5 1.5 16 14.0 NW 15 22 8 12 1001.7 1001.6 0.0
24/04:00pm 31.3 25.4 1.6 15 14.8 WNW 22 37 12 20 1001.5 1001.4 0.0
24/03:30pm 32.5 26.2 1.6 14 15.4 WNW 24 41 13 22 1001.4 1001.3 0.0
24/03:00pm 32.8 26.5 1.8 14 15.6 WNW 24 37 13 20 1001.1 1001.0 0.0
24/02:30pm 33.3 26.9 3.2 15 15.5 WNW 26 43 14 23 1001.2 1001.1 0.0
24/02:00pm 33.4 27.2 4.2 16 15.4 W 26 43 14 23 1001.2 1001.1 0.0
24/01:30pm 33.7 27.1 4.4 16 15.4 WNW 28 43 15 23 1001.7 1001.6 0.0
24/01:04pm 33.8 26.1 3.6 15 15.7 WNW 33 54 18 29 1001.8 1001.7 0.0
24/01:00pm 33.7 26.2 4.4 16 15.5 WNW 33 48 18 26 1001.8 1001.7 0.0
24/12:30pm 33.5 26.1 4.2 16 15.4 WNW 32 48 17 26 1001.9 1001.8 0.0
24/12:12pm 33.5 25.8 3.3 15 15.6 WNW 33 54 18 29 1002.3 1002.2 0.0
24/12:00pm 33.3 25.7 4.1 16 15.3 WNW 33 50 18 27 1002.4 1002.3 0.0
24/11:30am 33.4 25.5 4.2 16 15.3 WNW 35 54 19 29 1002.5 1002.4 0.0
24/11:00am 32.8 24.0 3.7 16 15.1 NW 39 59 21 32 1002.8 1002.7 0.0
24/10:30am 33.3 26.1 5.0 17 15.0 NW 32 50 17 27 1002.9 1002.8 0.0
24/10:00am 32.4 24.9 3.4 16 15.0 NW 32 54 17 29 1002.4 1002.3 0.0
24/09:30am 32.5 25.5 4.3 17 14.7 NNW 30 50 16 27 1002.2 1002.1 0.0
24/09:00am 31.8 24.2 3.8 17 14.5 NNW 33 54 18 29 1001.9 1001.8 0.0
24/08:30am 30.5 23.0 4.3 19 13.5 NW 33 54 18 29 1002.6 1002.5 0.0
24/08:23am 31.2 24.7 4.9 19 13.8 NW 28 50 15 27 1003.8 1003.7 0.0
24/08:00am 30.6 24.9 5.1 20 13.4 WNW 24 44 13 24 1003.6 1003.5 0.0
24/07:37am 30.4 23.2 4.9 20 13.3 WNW 32 52 17 28 1004.0 1003.9 0.0
24/07:30am 29.9 23.0 4.5 20 13.1 WNW 30 44 16 24 1003.4 1003.3 0.0
24/07:00am 28.1 21.9 4.4 22 12.1 WNW 26 35 14 19 1002.6 1002.5 0.0
24/06:30am 27.8 21.8 3.5 21 12.2 WNW 24 33 13 18 1001.8 1001.7 0.0
24/06:00am 27.7 21.2 2.7 20 12.4 WNW 26 37 14 20 1001.2 1001.1 0.0
24/05:30am 27.5 21.8 2.6 20 12.2 WNW 22 39 12 21 1001.2 1001.1 0.0
24/05:00am 27.8 22.3 2.1 19 12.6 NW 20 28 11 15 1000.4 1000.3 0.0
24/04:30am 28.4 22.5 1.8 18 13.0 WNW 22 32 12 17 1000.8 1000.7 0.0
24/04:00am 29.4 23.1 1.8 17 13.6 WNW 24 35 13 19 1000.6 1000.5 0.0
24/03:33am 30.4 23.5 2.6 17 13.9 W 28 67 15 36 1001.0 1000.9 0.0
24/03:30am 28.8 23.5 2.9 19 12.9 W 20 41 11 22 1001.3 1001.2 0.0
24/03:28am 27.9 23.3 3.6 21 12.2 W 17 35 9 19 1001.4 1001.3 0.0
24/03:00am 22.5 18.9 5.0 32 8.7 W 13 19 7 10 1000.1 1000.0 0.0
24/02:30am 18.1 15.2 6.6 47 5.7 WSW 11 17 6 9 1000.2 1000.1 0.0
24/02:00am 15.5 14.8 7.0 57 4.2 CALM 0 0 0 0 1000.3 1000.2 0.0
24/01:30am 14.3 12.3 7.1 62 3.5 WSW 7 13 4 7 1001.0 1000.9 0.0
24/01:00am 16.6 14.3 7.5 55 4.6 WSW 9 13 5 7 1002.1 1002.0 0.0
24/12:30am 16.1 14.5 6.3 52 4.8 SW 4 9 2 5 1002.0 1001.9 0.0
24/12:00am 17.3 14.9 7.1 51 5.1 N 9 13 5 7 1002.1 1002.0 0.0
 
Date/Time
EST
Temp
°C
App
Temp
°C
Dew
Point
°C
Rel
Hum
%
Delta-T
°C
Wind Press
QNH
hPa
Press
MSL
hPa
Rain since
9am
mm
Dir  Spd
km/h
Gust
km/h
Spd
kts
Gust
kts
23/11:30pm 16.2 14.3 6.6 53 4.7 N 6 11 3 6 1002.7 1002.6 0.0
23/11:00pm 16.8 14.3 6.6 51 5.0 N 9 13 5 7 1002.7 1002.6 0.0
23/10:30pm 18.5 17.7 6.4 45 6.0 CALM 0 0 0 0 1002.8 1002.7 0.0
23/10:00pm 19.4 18.1 5.8 41 6.7 N 2 6 1 3 1002.7 1002.6 0.0
23/09:30pm 20.6 18.8 5.4 37 7.5 N 4 11 2 6 1002.9 1002.8 0.0
23/09:00pm 21.9 19.4 3.6 30 8.9 N 6 7 3 4 1002.9 1002.8 0.0
23/08:30pm 26.1 22.8 2.7 22 11.4 N 9 13 5 7 1003.0 1002.9 0.0
23/08:00pm 24.0 20.6 3.9 27 9.9 N 11 13 6 7 1003.0 1002.9 0.0
23/07:30pm 25.3 21.9 2.1 22 11.1 N 9 11 5 6 1003.2 1003.1 0.0
23/07:00pm 29.2 24.7 -0.1 15 14.0 N 13 17 7 9 1003.0 1002.9 0.0
23/06:30pm 31.1 26.2 -0.5 13 15.1 N 15 20 8 11 1003.0 1002.9 0.0
23/06:00pm 31.3 26.8 -0.4 13 15.2 N 13 20 7 11 1002.9 1002.8 0.0
23/05:30pm 33.1 27.7 -1.3 11 16.4 NNW 17 26 9 14 1002.9 1002.8 0.0
23/05:00pm 33.7 28.9 0.4 12 16.5 NNW 15 32 8 17 1003.0 1002.9 0.0
23/04:30pm 34.3 29.2 0.8 12 16.7 NNW 17 24 9 13 1002.9 1002.8 0.0
23/04:00pm 34.7 28.5 -0.1 11 17.2 NW 22 39 12 21 1002.8 1002.7 0.0
23/03:30pm 35.1 28.6 0.2 11 17.3 NNW 24 37 13 20 1002.9 1002.8 0.0
23/03:00pm 35.0 30.4 1.4 12 17.1 N 15 39 8 21 1003.1 1003.0 0.0
23/02:30pm 31.9 31.3 8.8 24 12.9 NNE 2 7 1 4 1003.6 1003.5 0.0
23/02:00pm 30.5 29.0 8.3 25 12.3 NNE 6 9 3 5 1004.3 1004.2 0.0
23/01:30pm 28.9 26.1 5.1 22 12.3 NW 9 13 5 7 1005.2 1005.1 0.0
23/01:00pm 27.1 26.4 7.0 28 10.7 CALM 0 0 0 0 1005.9 1005.8 0.0
23/12:30pm 26.3 24.8 6.9 29 10.2 NW 4 7 2 4 1006.7 1006.6 0.0
23/12:00pm 24.7 22.5 6.4 31 9.5 NW 7 11 4 6 1007.4 1007.3 0.0
23/11:30am 22.5 20.2 5.9 34 8.4 NW 7 9 4 5 1008.2 1008.1 0.0
23/11:00am 22.0 19.6 5.4 34 8.3 NW 7 9 4 5 1008.9 1008.8 0.0
23/10:30am 21.5 19.6 5.0 34 8.1 NW 4 7 2 4 1009.4 1009.3 0.0
23/10:00am 20.7 17.6 5.5 37 7.5 WNW 11 17 6 9 1009.9 1009.8 0.0
23/09:30am 20.0 16.3 4.5 36 7.5 W 13 22 7 12 1010.6 1010.5 0.0
23/09:00am 19.0 16.1 4.7 39 6.9 N 9 13 5 7 1010.9 1010.8 0.0
23/08:30am 17.3 15.5 7.1 51 5.1 W 6 9 3 5 1011.4 1011.3 0.0
23/08:00am 14.7 11.9 6.8 59 3.9 W 11 17 6 9 1011.5 1011.4 0.0
23/07:30am 13.0 12.6 8.3 73 2.3 CALM 0 0 0 0 1010.9 1010.8 0.0
23/07:00am 12.3 11.8 7.8 74 2.2 CALM 0 0 0 0 1011.0 1010.9 0.0
23/06:30am 9.2 8.4 6.6 84 1.2 CALM 0 0 0 0 1010.6 1010.5 0.0
23/06:00am 8.3 7.3 5.4 82 1.3 CALM 0 0 0 0 1010.5 1010.4 0.0
23/05:30am 8.5 7.4 5.3 80 1.4 CALM 0 0 0 0 1010.5 1010.4 0.0
23/05:00am 8.3 6.8 5.1 80 1.4 NNW 2 7 1 4 1010.7 1010.6 0.0
23/04:30am 11.9 8.7 5.3 64 3.0 NNW 11 15 6 8 1010.6 1010.5 0.0
23/04:00am 10.4 9.4 5.4 71 2.3 CALM 0 0 0 0 1010.5 1010.4 0.0
23/03:30am 10.2 9.3 6.0 75 1.9 CALM 0 0 0 0 1010.6 1010.5 0.0
23/03:00am 11.4 10.4 5.7 68 2.6 CALM 0 0 0 0 1010.9 1010.8 0.0
23/02:30am 10.7 10.0 7.0 78 1.8 CALM 0 0 0 0 1010.8 1010.7 0.0
23/02:00am 10.3 9.6 7.0 80 1.6 CALM 0 0 0 0 1010.8 1010.7 0.0
23/01:30am 9.6 8.8 6.7 82 1.4 CALM 0 0 0 0 1011.0 1010.9 0.0
23/01:00am 9.2 8.6 7.6 90 0.8 CALM 0 0 0 0 1011.3 1011.2 0.0
23/12:30am 11.3 10.6 7.0 75 2.1 CALM 0 0 0 0 1011.5 1011.4 0.0
23/12:00am 11.1 10.5 7.4 78 1.8 CALM 0 0 0 0 1011.6 1011.5 0.0
 
Date/Time
EST
Temp
°C
App
Temp
°C
Dew
Point
°C
Rel
Hum
%
Delta-T
°C
Wind Press
QNH
hPa
Press
MSL
hPa
Rain since
9am
mm
Dir  Spd
km/h
Gust
km/h
Spd
kts
Gust
kts
22/11:30pm 12.0 11.2 6.7 70 2.5 CALM 0 0 0 0 1011.6 1011.5 0.0
22/11:00pm 12.1 11.5 7.2 72 2.4 CALM 0 0 0 0 1011.6 1011.5 0.0
22/10:30pm 12.7 12.1 7.4 70 2.6 CALM 0 0 0 0 1011.9 1011.8 0.0
22/10:00pm 13.0 12.3 6.8 66 3.0 CALM 0 0 0 0 1012.0 1011.9 0.0
22/09:30pm 13.6 12.8 6.7 63 3.3 CALM 0 0 0 0 1012.1 1012.0 0.0
22/09:00pm 13.9 12.0 6.5 61 3.6 NNW 6 9 3 5 1012.1 1012.0 0.0
22/08:30pm 15.4 13.2 6.4 55 4.4 NNW 7 9 4 5 1012.0 1011.9 0.0
22/08:00pm 16.8 14.6 6.0 49 5.3 NNW 7 9 4 5 1011.8 1011.7 0.0
22/07:30pm 18.3 16.1 6.2 45 6.0 NNW 7 7 4 4 1011.5 1011.4 0.0
22/07:00pm 20.6 18.4 5.4 37 7.5 NNW 6 7 3 4 1011.1 1011.0 0.0
22/06:30pm 21.2 18.5 2.5 29 8.8 NNW 6 9 3 5 1010.7 1010.6 0.0
22/06:00pm 21.7 18.4 -0.9 22 10.0 NNW 6 9 3 5 1010.4 1010.3 0.0
22/05:57pm 21.8 18.7 1.5 26 9.4 NNW 7 9 4 5 1010.4 1010.3 0.0
22/05:30pm 26.8 23.0 -1.1 16 12.8 NNW 9 11 5 6 1010.2 1010.1 0.0
22/05:00pm 29.3 24.7 -4.2 11 14.8 NNW 11 15 6 8 1010.1 1010.0 0.0
22/04:30pm 30.2 25.5 -4.8 10 15.4 NNW 11 20 6 11 1010.0 1009.9 0.0

Other Formats:

Comma delimited format used in spreadsheet applications
http://www.bom.gov.au/fwo/IDN60801/IDN60801.94650.axf

JavaScript Object Notation format (JSON) in row-major order
http://www.bom.gov.au/fwo/IDN60801/IDN60801.94650.json